PWSweather.com
Personal Weather Stations
Station Observations
KCTHAMDEN
Dunbar Hill, Hamden, CT 06514

Dunbar HillHamden, CT 06514

Lat: 41.365437, Lon: -72.956532

Elevation: 200

Station Type: Davis Vantage Pro2+

www.hamdenweather.com

High Low Average
Temperature 67.4°F19.7°C 55.1°F12.8°C 58.9°F14.9°C
Dew Point 60.2°F15.7°C 53.7°F12.1°C 56.2°F13.4°C
Winds 4.0 mph 6.4 kmh Calm Calm 1.0 mph S1.6 kmh S
Wind Gusts 6.0 mph9.7 kmh -- 1.0 mph1.6 kmh
Humidity 98% 67% 91%
Pressure 30.16 in1021.3 mb 30.01 in1016.3 mb -
Precipitation 0.33 in8.4 mm - -
Hour Temp Dew Point Humidity Winds Wind Gusts Pressure Precip Precip Rate Daily Precip Total
12:00 AM 58.3°F14.6°C 57.2°F14.0°C 96% 0.8 mph N1.3 kmh N 3.0 mph4.8 kmh 30.01 in1016.3 mb - 0.00 in0.0 mm 0.00 in0.0 mm
12:15 AM 58.1°F14.5°C 57.0°F13.9°C 96% 0.2 mph N0.3 kmh N -- 30.02 in1016.6 mb - 0.00 in0.0 mm 0.00 in0.0 mm
12:30 AM 58.0°F14.4°C 56.9°F13.8°C 96% Calm Calm -- 30.02 in1016.6 mb - 0.00 in0.0 mm 0.00 in0.0 mm
12:45 AM 57.8°F14.3°C 56.7°F13.7°C 96% Calm Calm -- 30.02 in1016.6 mb - 0.00 in0.0 mm 0.00 in0.0 mm
01:00 AM 57.5°F14.2°C 56.4°F13.6°C 96% Calm Calm -- 30.02 in1016.6 mb - 0.00 in0.0 mm 0.00 in0.0 mm
01:15 AM 57.3°F14.1°C 56.2°F13.4°C 96% 0.1 mph N0.2 kmh N 1.0 mph1.6 kmh 30.02 in1016.6 mb - 0.00 in0.0 mm 0.00 in0.0 mm
01:30 AM 57.3°F14.1°C 56.2°F13.4°C 96% Calm Calm -- 30.02 in1016.6 mb - 0.00 in0.0 mm 0.00 in0.0 mm
01:45 AM 57.2°F14.0°C 56.1°F13.4°C 96% Calm Calm -- 30.02 in1016.6 mb - 0.00 in0.0 mm 0.00 in0.0 mm
02:00 AM 57.0°F13.9°C 55.9°F13.3°C 96% Calm Calm -- 30.02 in1016.6 mb - 0.00 in0.0 mm 0.00 in0.0 mm
02:15 AM 56.8°F13.8°C 55.7°F13.2°C 96% Calm Calm -- 30.02 in1016.6 mb - 0.00 in0.0 mm 0.00 in0.0 mm
02:30 AM 56.7°F13.7°C 55.6°F13.1°C 96% Calm Calm -- 30.02 in1016.6 mb - 0.00 in0.0 mm 0.00 in0.0 mm
02:45 AM 56.6°F13.7°C 55.5°F13.1°C 96% Calm Calm -- 30.02 in1016.6 mb - 0.00 in0.0 mm 0.00 in0.0 mm
03:00 AM 56.5°F13.6°C 55.3°F12.9°C 96% Calm Calm -- 30.02 in1016.6 mb - 0.00 in0.0 mm 0.00 in0.0 mm
03:15 AM 56.4°F13.6°C 55.6°F13.1°C 97% Calm Calm -- 30.03 in1016.9 mb - 0.00 in0.0 mm 0.00 in0.0 mm
03:30 AM 56.2°F13.4°C 55.4°F13.0°C 97% Calm Calm -- 30.04 in1017.3 mb - 0.00 in0.0 mm 0.00 in0.0 mm
03:45 AM 56.0°F13.3°C 54.9°F12.7°C 96% Calm Calm -- 30.04 in1017.3 mb - 0.00 in0.0 mm 0.00 in0.0 mm
04:00 AM 56.0°F13.3°C 55.2°F12.9°C 97% Calm Calm -- 30.04 in1017.3 mb - 0.00 in0.0 mm 0.00 in0.0 mm
04:15 AM 56.0°F13.3°C 55.2°F12.9°C 97% Calm Calm -- 30.05 in1017.6 mb - 0.00 in0.0 mm 0.00 in0.0 mm
04:30 AM 56.0°F13.3°C 55.2°F12.9°C 97% Calm Calm -- 30.05 in1017.6 mb - 0.00 in0.0 mm 0.00 in0.0 mm
04:45 AM 56.0°F13.3°C 55.2°F12.9°C 97% Calm Calm -- 30.06 in1017.9 mb - 0.00 in0.0 mm 0.00 in0.0 mm
05:00 AM 56.1°F13.4°C 55.3°F12.9°C 97% Calm Calm -- 30.07 in1018.3 mb - 0.00 in0.0 mm 0.00 in0.0 mm
05:15 AM 56.2°F13.4°C 55.4°F13.0°C 97% Calm Calm -- 30.08 in1018.6 mb - 0.00 in0.0 mm 0.00 in0.0 mm
05:30 AM 56.4°F13.6°C 55.6°F13.1°C 97% Calm Calm -- 30.09 in1019.0 mb - 0.00 in0.0 mm 0.00 in0.0 mm
05:45 AM 56.9°F13.8°C 56.0°F13.3°C 97% Calm Calm 1.0 mph1.6 kmh 30.10 in1019.3 mb - 0.00 in0.0 mm 0.00 in0.0 mm
06:00 AM 57.5°F14.2°C 56.7°F13.7°C 97% Calm Calm -- 30.10 in1019.3 mb - 0.00 in0.0 mm 0.00 in0.0 mm
06:15 AM 58.4°F14.7°C 57.8°F14.3°C 98% 2.2 mph NE3.5 kmh NE 2.0 mph3.2 kmh 30.11 in1019.6 mb - 0.00 in0.0 mm 0.00 in0.0 mm
06:30 AM 59.0°F15.0°C 58.4°F14.7°C 98% 0.4 mph NNE0.6 kmh NNE 3.0 mph4.8 kmh 30.11 in1019.6 mb - 0.00 in0.0 mm 0.00 in0.0 mm
06:45 AM 59.9°F15.5°C 59.4°F15.2°C 98% 0.6 mph WSW1.0 kmh WSW 2.0 mph3.2 kmh 30.11 in1019.6 mb - 0.00 in0.0 mm 0.00 in0.0 mm
07:00 AM 60.3°F15.7°C 59.7°F15.4°C 98% 1.3 mph WSW2.1 kmh WSW 4.0 mph6.4 kmh 30.11 in1019.6 mb - 0.00 in0.0 mm 0.00 in0.0 mm
07:15 AM 61.1°F16.2°C 60.2°F15.7°C 97% 0.3 mph E0.5 kmh E 2.0 mph3.2 kmh 30.11 in1019.6 mb - 0.00 in0.0 mm 0.00 in0.0 mm
07:30 AM 61.1°F16.2°C 59.9°F15.5°C 96% 1.2 mph W1.9 kmh W 2.0 mph3.2 kmh 30.11 in1019.6 mb - 0.00 in0.0 mm 0.00 in0.0 mm
07:45 AM 61.2°F16.2°C 59.5°F15.3°C 94% 0.6 mph NE1.0 kmh NE 3.0 mph4.8 kmh 30.11 in1019.6 mb - 0.00 in0.0 mm 0.00 in0.0 mm
08:00 AM 62.2°F16.8°C 58.9°F14.9°C 89% 1.6 mph NE2.6 kmh NE 5.0 mph8.0 kmh 30.11 in1019.6 mb - 0.00 in0.0 mm 0.00 in0.0 mm
08:15 AM 63.3°F17.4°C 59.1°F15.1°C 86% 0.7 mph NE1.1 kmh NE 2.0 mph3.2 kmh 30.11 in1019.6 mb - 0.00 in0.0 mm 0.00 in0.0 mm
08:30 AM 64.4°F18.0°C 57.4°F14.1°C 78% 1.5 mph NE2.4 kmh NE 4.0 mph6.4 kmh 30.11 in1019.6 mb - 0.00 in0.0 mm 0.00 in0.0 mm
08:45 AM 65.3°F18.5°C 57.2°F14.0°C 75% 1.4 mph ESE2.3 kmh ESE 3.0 mph4.8 kmh 30.12 in1020.0 mb - 0.00 in0.0 mm 0.00 in0.0 mm
09:00 AM 65.4°F18.6°C 55.7°F13.2°C 71% 1.7 mph E2.7 kmh E 2.0 mph3.2 kmh 30.12 in1020.0 mb - 0.00 in0.0 mm 0.00 in0.0 mm
09:15 AM 65.6°F18.7°C 56.7°F13.7°C 73% 0.8 mph NE1.3 kmh NE 3.0 mph4.8 kmh 30.12 in1020.0 mb - 0.00 in0.0 mm 0.00 in0.0 mm
09:30 AM 65.7°F18.7°C 56.8°F13.8°C 73% 1.0 mph WSW1.6 kmh WSW 3.0 mph4.8 kmh 30.12 in1020.0 mb - 0.00 in0.0 mm 0.00 in0.0 mm
09:45 AM 66.3°F19.1°C 56.6°F13.7°C 71% 0.4 mph W0.6 kmh W 3.0 mph4.8 kmh 30.13 in1020.3 mb - 0.00 in0.0 mm 0.00 in0.0 mm
10:00 AM 66.7°F19.3°C 55.4°F13.0°C 67% 0.5 mph NE0.8 kmh NE 1.0 mph1.6 kmh 30.13 in1020.3 mb - 0.00 in0.0 mm 0.00 in0.0 mm
10:15 AM 67.3°F19.6°C 57.1°F13.9°C 70% 2.6 mph E4.2 kmh E 3.0 mph4.8 kmh 30.13 in1020.3 mb - 0.01 in0.3 mm 0.01 in0.3 mm
10:30 AM 67.2°F19.6°C 56.7°F13.7°C 69% 2.5 mph NE4.0 kmh NE 4.0 mph6.4 kmh 30.14 in1020.7 mb - 0.00 in0.0 mm 0.01 in0.3 mm
10:45 AM 67.2°F19.6°C 55.9°F13.3°C 67% 2.2 mph E3.5 kmh E 6.0 mph9.7 kmh 30.14 in1020.7 mb - 0.00 in0.0 mm 0.01 in0.3 mm
11:00 AM 67.4°F19.7°C 56.8°F13.8°C 69% 4.0 mph E6.4 kmh E 6.0 mph9.7 kmh 30.14 in1020.7 mb - 0.00 in0.0 mm 0.01 in0.3 mm
11:15 AM 66.8°F19.3°C 58.2°F14.6°C 74% 1.4 mph SSE2.3 kmh SSE 3.0 mph4.8 kmh 30.15 in1021.0 mb - 0.00 in0.0 mm 0.01 in0.3 mm
11:30 AM 65.8°F18.8°C 58.0°F14.4°C 76% 0.1 mph ESE0.2 kmh ESE 1.0 mph1.6 kmh 30.15 in1021.0 mb - 0.00 in0.0 mm 0.01 in0.3 mm
11:45 AM 65.0°F18.3°C 57.9°F14.4°C 78% 0.6 mph SSW1.0 kmh SSW 2.0 mph3.2 kmh 30.16 in1021.3 mb - 0.00 in0.0 mm 0.01 in0.3 mm
12:00 PM 64.0°F17.8°C 58.0°F14.4°C 81% 0.3 mph SE0.5 kmh SE -- 30.16 in1021.3 mb - 0.00 in0.0 mm 0.01 in0.3 mm
12:15 PM 63.5°F17.5°C 58.6°F14.8°C 84% 0.2 mph SE0.3 kmh SE -- 30.15 in1021.0 mb - 0.00 in0.0 mm 0.01 in0.3 mm
12:30 PM 63.2°F17.3°C 58.9°F14.9°C 86% 0.7 mph E1.1 kmh E 2.0 mph3.2 kmh 30.15 in1021.0 mb - 0.00 in0.0 mm 0.01 in0.3 mm
12:45 PM 63.2°F17.3°C 58.9°F14.9°C 86% 2.6 mph E4.2 kmh E 6.0 mph9.7 kmh 30.14 in1020.7 mb - 0.00 in0.0 mm 0.01 in0.3 mm
01:00 PM 63.1°F17.3°C 58.9°F14.9°C 86% 1.9 mph SE3.1 kmh SE 3.0 mph4.8 kmh 30.15 in1021.0 mb - 0.00 in0.0 mm 0.01 in0.3 mm
01:15 PM 63.0°F17.2°C 58.7°F14.8°C 86% 2.1 mph ENE3.4 kmh ENE 4.0 mph6.4 kmh 30.15 in1021.0 mb - 0.00 in0.0 mm 0.01 in0.3 mm
01:30 PM 62.3°F16.8°C 58.4°F14.7°C 87% 2.5 mph E4.0 kmh E 3.0 mph4.8 kmh 30.15 in1021.0 mb - 0.00 in0.0 mm 0.01 in0.3 mm
01:45 PM 62.1°F16.7°C 58.5°F14.7°C 88% 1.3 mph SE2.1 kmh SE 3.0 mph4.8 kmh 30.14 in1020.7 mb - 0.01 in0.3 mm 0.02 in0.5 mm
02:00 PM 61.6°F16.4°C 58.3°F14.6°C 89% Calm Calm 1.0 mph1.6 kmh 30.14 in1020.7 mb - 0.01 in0.3 mm 0.03 in0.8 mm
02:15 PM 61.0°F16.1°C 58.0°F14.4°C 90% Calm Calm 1.0 mph1.6 kmh 30.14 in1020.7 mb - 0.03 in0.8 mm 0.06 in1.5 mm
02:30 PM 60.5°F15.8°C 57.9°F14.4°C 91% 0.6 mph SE1.0 kmh SE 3.0 mph4.8 kmh 30.14 in1020.7 mb - 0.03 in0.8 mm 0.09 in2.3 mm
02:45 PM 60.2°F15.7°C 57.9°F14.4°C 92% 2.0 mph S3.2 kmh S 2.0 mph3.2 kmh 30.14 in1020.7 mb - 0.01 in0.3 mm 0.10 in2.5 mm
03:00 PM 59.5°F15.3°C 57.2°F14.0°C 92% 1.0 mph SE1.6 kmh SE 5.0 mph8.0 kmh 30.14 in1020.7 mb - 0.03 in0.8 mm 0.13 in3.3 mm
03:15 PM 58.7°F14.8°C 56.4°F13.6°C 92% 1.1 mph SE1.8 kmh SE 2.0 mph3.2 kmh 30.13 in1020.3 mb - 0.02 in0.5 mm 0.14 in3.6 mm
03:30 PM 58.1°F14.5°C 55.8°F13.2°C 92% 1.9 mph SE3.1 kmh SE 2.0 mph3.2 kmh 30.13 in1020.3 mb - 0.01 in0.3 mm 0.15 in3.8 mm
03:45 PM 57.6°F14.2°C 55.6°F13.1°C 93% 0.9 mph SE1.4 kmh SE 3.0 mph4.8 kmh 30.12 in1020.0 mb - 0.00 in0.0 mm 0.15 in3.8 mm
04:00 PM 57.3°F14.1°C 55.3°F12.9°C 93% 0.3 mph SE0.5 kmh SE 4.0 mph6.4 kmh 30.12 in1020.0 mb - 0.01 in0.3 mm 0.16 in4.1 mm
04:15 PM 57.1°F13.9°C 55.4°F13.0°C 94% 4.0 mph E6.4 kmh E 6.0 mph9.7 kmh 30.12 in1020.0 mb - 0.00 in0.0 mm 0.16 in4.1 mm
04:30 PM 57.0°F13.9°C 55.3°F12.9°C 94% 1.5 mph E2.4 kmh E 3.0 mph4.8 kmh 30.12 in1020.0 mb - 0.00 in0.0 mm 0.16 in4.1 mm
04:45 PM 57.1°F13.9°C 55.4°F13.0°C 94% Calm Calm -- 30.12 in1020.0 mb - 0.01 in0.3 mm 0.17 in4.3 mm
05:00 PM 57.0°F13.9°C 55.6°F13.1°C 95% Calm Calm -- 30.11 in1019.6 mb - 0.00 in0.0 mm 0.17 in4.3 mm
05:15 PM 56.9°F13.8°C 55.5°F13.1°C 95% 0.1 mph SE0.2 kmh SE 1.0 mph1.6 kmh 30.11 in1019.6 mb - 0.00 in0.0 mm 0.17 in4.3 mm
05:30 PM 56.8°F13.8°C 55.1°F12.8°C 94% 1.3 mph SE2.1 kmh SE 3.0 mph4.8 kmh 30.12 in1020.0 mb - 0.00 in0.0 mm 0.17 in4.3 mm
05:45 PM 56.4°F13.6°C 54.7°F12.6°C 94% 0.4 mph S0.6 kmh S 1.0 mph1.6 kmh 30.11 in1019.6 mb - 0.00 in0.0 mm 0.17 in4.3 mm
06:00 PM 56.2°F13.4°C 54.8°F12.7°C 95% 1.1 mph E1.8 kmh E 3.0 mph4.8 kmh 30.11 in1019.6 mb - 0.01 in0.3 mm 0.18 in4.6 mm
06:15 PM 56.0°F13.3°C 54.6°F12.6°C 95% 0.1 mph ESE0.2 kmh ESE 1.0 mph1.6 kmh 30.11 in1019.6 mb - 0.01 in0.3 mm 0.19 in4.8 mm
06:30 PM 55.8°F13.2°C 54.4°F12.4°C 95% 0.7 mph E1.1 kmh E 2.0 mph3.2 kmh 30.11 in1019.6 mb - 0.02 in0.5 mm 0.21 in5.3 mm
06:45 PM 55.4°F13.0°C 54.0°F12.2°C 95% 0.7 mph SE1.1 kmh SE -- 30.11 in1019.6 mb - 0.01 in0.3 mm 0.22 in5.6 mm
07:00 PM 55.3°F12.9°C 53.9°F12.2°C 95% Calm Calm -- 30.11 in1019.6 mb - 0.03 in0.8 mm 0.25 in6.4 mm
07:15 PM 55.1°F12.8°C 53.7°F12.1°C 95% Calm Calm -- 30.11 in1019.6 mb - 0.02 in0.5 mm 0.26 in6.6 mm
07:30 PM 55.1°F12.8°C 53.7°F12.1°C 95% Calm Calm -- 30.10 in1019.3 mb - 0.02 in0.5 mm 0.28 in7.1 mm
07:45 PM 55.1°F12.8°C 53.7°F12.1°C 95% Calm Calm -- 30.10 in1019.3 mb - 0.02 in0.5 mm 0.29 in7.4 mm
08:00 PM 55.1°F12.8°C 53.7°F12.1°C 95% Calm Calm -- 30.09 in1019.0 mb - 0.02 in0.5 mm 0.31 in7.9 mm
08:15 PM 55.1°F12.8°C 54.0°F12.2°C 96% Calm Calm -- 30.09 in1019.0 mb - 0.01 in0.3 mm 0.32 in8.1 mm
08:30 PM 55.1°F12.8°C 54.0°F12.2°C 96% Calm Calm -- 30.09 in1019.0 mb - 0.01 in0.3 mm 0.33 in8.4 mm
08:45 PM 55.1°F12.8°C 54.0°F12.2°C 96% Calm Calm -- 30.09 in1019.0 mb - 0.00 in0.0 mm 0.33 in8.4 mm
09:00 PM 55.1°F12.8°C 54.0°F12.2°C 96% Calm Calm -- 30.09 in1019.0 mb - 0.00 in0.0 mm 0.33 in8.4 mm
09:15 PM 55.2°F12.9°C 54.1°F12.3°C 96% Calm Calm -- 30.08 in1018.6 mb - 0.00 in0.0 mm 0.33 in8.4 mm
09:30 PM 55.3°F12.9°C 54.2°F12.3°C 96% Calm Calm -- 30.08 in1018.6 mb - 0.00 in0.0 mm 0.33 in8.4 mm
09:45 PM 55.3°F12.9°C 54.2°F12.3°C 96% Calm Calm -- 30.07 in1018.3 mb - 0.00 in0.0 mm 0.33 in8.4 mm
10:00 PM 55.3°F12.9°C 54.2°F12.3°C 96% Calm Calm -- 30.07 in1018.3 mb - 0.00 in0.0 mm 0.33 in8.4 mm
10:15 PM 55.3°F12.9°C 54.2°F12.3°C 96% Calm Calm -- 30.07 in1018.3 mb - 0.00 in0.0 mm 0.33 in8.4 mm
10:30 PM 55.3°F12.9°C 54.2°F12.3°C 96% Calm Calm -- 30.07 in1018.3 mb - 0.00 in0.0 mm 0.33 in8.4 mm
10:45 PM 55.2°F12.9°C 54.1°F12.3°C 96% Calm Calm -- 30.06 in1017.9 mb - 0.00 in0.0 mm 0.33 in8.4 mm
11:00 PM 55.2°F12.9°C 54.1°F12.3°C 96% Calm Calm -- 30.06 in1017.9 mb - 0.00 in0.0 mm 0.36 in9.1 mm
11:15 PM 55.2°F12.9°C 54.1°F12.3°C 96% Calm Calm -- 30.06 in1017.9 mb - 0.01 in0.3 mm 0.01 in0.3 mm
11:30 PM 55.2°F12.9°C 54.3°F12.4°C 97% Calm Calm -- 30.06 in1017.9 mb - 0.00 in0.0 mm 0.01 in0.3 mm
11:45 PM 55.1°F12.8°C 54.3°F12.4°C 97% Calm Calm -- 30.05 in1017.6 mb - 0.01 in0.3 mm 0.02 in0.5 mm